Time;durP1;ratioP1;P1;durP2;ratioP2;P2;SDS_P1;SDS_P2;PMS_P1;PMS_P2;Temp;Humidity;BMP_temperature;BMP_pressure;BME280_temperature;BME280_humidity;BME280_pressure;Samples;Min_cycle;Max_cycle;Signal;HPM_P1;HPM_P2
2023/12/20 00:00:58;;;;;;;1.55;0.85;;;10.70;98.70;;;;;;5012584;28;20029;-43
2023/12/20 00:03:24;;;;;;;1.95;1.27;;;10.70;98.70;;;;;;5012561;28;20523;-45
2023/12/20 00:05:50;;;;;;;1.75;1.20;;;10.70;98.70;;;;;;5012330;28;20499;-44
2023/12/20 00:08:15;;;;;;;1.48;1.02;;;10.70;98.70;;;;;;5012285;28;20034;-45
2023/12/20 00:10:41;;;;;;;1.38;1.15;;;10.70;98.80;;;;;;5012255;28;20029;-44
2023/12/20 00:13:07;;;;;;;1.20;0.80;;;10.70;98.80;;;;;;5010850;28;20464;-44
2023/12/20 00:15:33;;;;;;;1.67;1.20;;;10.70;98.80;;;;;;5012321;28;20029;-44
2023/12/20 00:17:59;;;;;;;1.80;1.10;;;10.70;98.80;;;;;;5011969;28;20041;-43
2023/12/20 00:20:25;;;;;;;1.77;0.90;;;10.70;98.80;;;;;;5012371;28;20507;-44
2023/12/20 00:22:50;;;;;;;1.77;1.00;;;10.70;98.80;;;;;;5011914;28;20476;-44
2023/12/20 00:25:16;;;;;;;1.42;0.90;;;10.70;98.90;;;;;;5012027;28;20052;-44
2023/12/20 00:27:42;;;;;;;1.70;1.00;;;10.70;98.80;;;;;;5011713;28;20389;-44
2023/12/20 00:30:08;;;;;;;1.38;1.00;;;10.70;98.90;;;;;;5011960;28;20022;-44
2023/12/20 00:32:35;;;;;;;2.05;1.10;;;10.70;98.90;;;;;;5012126;28;20514;-44
2023/12/20 00:35:01;;;;;;;1.40;0.90;;;10.70;98.90;;;;;;5010615;28;20021;-45
2023/12/20 00:37:26;;;;;;;1.38;1.10;;;10.70;98.90;;;;;;5011825;28;20029;-43
2023/12/20 00:39:52;;;;;;;1.17;0.93;;;10.70;98.90;;;;;;5011871;28;20476;-44
2023/12/20 00:42:17;;;;;;;1.98;0.80;;;10.70;98.90;;;;;;5012515;28;20427;-44
2023/12/20 00:44:43;;;;;;;1.42;1.00;;;10.70;98.90;;;;;;5011759;28;20029;-44
2023/12/20 00:47:09;;;;;;;1.23;0.80;;;10.70;98.90;;;;;;5011680;28;20025;-43
2023/12/20 00:49:34;;;;;;;1.00;0.80;;;10.70;99.00;;;;;;5011923;28;20018;-44
2023/12/20 00:52:00;;;;;;;1.70;0.93;;;10.70;99.00;;;;;;5011310;28;20044;-45
2023/12/20 00:54:26;;;;;;;1.33;1.00;;;10.60;99.00;;;;;;5010853;28;20066;-42
2023/12/20 00:56:51;;;;;;;1.10;0.85;;;10.70;99.00;;;;;;5012019;28;20022;-43
2023/12/20 00:59:18;;;;;;;1.23;0.88;;;10.70;99.00;;;;;;5011492;28;20399;-44
2023/12/20 01:01:43;;;;;;;1.55;1.00;;;10.70;99.20;;;;;;5011424;28;20026;-43
2023/12/20 01:04:09;;;;;;;1.00;0.68;;;10.60;99.00;;;;;;5011682;28;20029;-44
2023/12/20 01:06:35;;;;;;;1.05;0.80;;;10.60;99.00;;;;;;5011803;28;20040;-44
2023/12/20 01:09:01;;;;;;;1.02;0.70;;;10.60;99.10;;;;;;5011505;28;20540;-44
2023/12/20 01:11:26;;;;;;;0.98;0.60;;;10.60;99.00;;;;;;5011502;28;20436;-43
2023/12/20 01:13:52;;;;;;;0.88;0.80;;;10.70;99.10;;;;;;5011709;28;20038;-45
2023/12/20 01:16:18;;;;;;;1.70;1.10;;;10.60;99.10;;;;;;5011382;28;20032;-44
2023/12/20 01:18:43;;;;;;;1.20;0.77;;;10.70;99.10;;;;;;5011363;28;20030;-44
2023/12/20 01:21:09;;;;;;;1.48;0.80;;;10.60;99.10;;;;;;5011661;28;20030;-43
2023/12/20 01:23:35;;;;;;;1.05;0.70;;;10.60;99.10;;;;;;5011189;28;20061;-42
2023/12/20 01:26:00;;;;;;;1.15;0.70;;;10.60;99.10;;;;;;5011315;28;20026;-44
2023/12/20 01:28:27;;;;;;;1.10;0.90;;;10.60;99.10;;;;;;5011233;28;20032;-44
2023/12/20 01:30:52;;;;;;;1.08;0.65;;;10.60;99.10;;;;;;5011240;28;20495;-42
2023/12/20 01:33:18;;;;;;;1.10;0.80;;;10.60;99.10;;;;;;5011347;28;20030;-44
2023/12/20 01:35:44;;;;;;;1.10;0.77;;;10.60;99.50;;;;;;5011228;28;20026;-45
2023/12/20 01:38:09;;;;;;;1.05;0.80;;;10.60;99.10;;;;;;5011058;28;20025;-45
2023/12/20 01:40:35;;;;;;;0.90;0.70;;;10.60;99.20;;;;;;5011352;28;20499;-45
2023/12/20 01:43:05;;;;;;;1.00;0.70;;;10.60;99.20;;;;;;5011162;28;20061;-45
2023/12/20 01:45:30;;;;;;;1.23;0.80;;;10.60;99.20;;;;;;5011168;28;20125;-43
2023/12/20 01:47:58;;;;;;;0.88;0.63;;;10.60;99.20;;;;;;5010964;28;20090;-44
2023/12/20 01:50:24;;;;;;;0.82;0.68;;;10.60;99.20;;;;;;5010792;28;20018;-44
2023/12/20 01:52:52;;;;;;;1.20;0.90;;;10.60;99.20;;;;;;5011414;28;20076;-44
2023/12/20 01:55:19;;;;;;;1.13;0.70;;;10.60;99.20;;;;;;5011397;28;20033;-43
2023/12/20 01:57:47;;;;;;;1.10;0.88;;;10.60;99.20;;;;;;5010876;28;20030;-44
2023/12/20 02:00:14;;;;;;;1.42;0.70;;;10.60;99.30;;;;;;5010982;28;20034;-44
2023/12/20 02:02:40;;;;;;;0.70;0.68;;;10.60;99.20;;;;;;5010863;28;20030;-44
2023/12/20 02:05:07;;;;;;;0.90;0.80;;;10.60;99.30;;;;;;5010970;28;20026;-45
2023/12/20 02:07:34;;;;;;;0.70;0.60;;;10.60;99.30;;;;;;5013778;28;20511;-44
2023/12/20 02:10:00;;;;;;;1.00;0.60;;;10.60;99.30;;;;;;5014545;28;20032;-44
2023/12/20 02:12:26;;;;;;;0.50;0.50;;;10.60;99.30;;;;;;5014823;28;20025;-44
2023/12/20 02:14:52;;;;;;;0.40;0.40;;;10.60;99.30;;;;;;5013164;28;20044;-45
2023/12/20 02:17:18;;;;;;;0.80;0.60;;;10.60;99.30;;;;;;5015086;28;20472;-44
2023/12/20 02:19:44;;;;;;;0.60;0.50;;;10.60;99.30;;;;;;5014644;28;20084;-41
2023/12/20 02:22:10;;;;;;;0.95;0.60;;;10.60;99.30;;;;;;5015209;28;20038;-45
2023/12/20 02:24:36;;;;;;;0.80;0.50;;;10.60;99.40;;;;;;5015013;28;20029;-44
2023/12/20 02:27:02;;;;;;;1.05;0.57;;;10.60;99.30;;;;;;5014156;28;20030;-45
2023/12/20 02:29:28;;;;;;;1.00;0.70;;;10.60;99.40;;;;;;5014579;28;20025;-43
2023/12/20 02:31:53;;;;;;;0.95;0.70;;;10.60;99.40;;;;;;5013990;28;20034;-45
2023/12/20 02:34:20;;;;;;;0.70;0.57;;;10.60;99.40;;;;;;5014396;28;20038;-44
2023/12/20 02:36:45;;;;;;;1.05;0.70;;;10.60;99.40;;;;;;5014627;28;20026;-45
2023/12/20 02:39:11;;;;;;;0.60;0.50;;;10.60;99.40;;;;;;5012589;28;20443;-44
2023/12/20 02:41:37;;;;;;;0.85;0.50;;;10.60;99.40;;;;;;5014198;28;20101;-44
2023/12/20 02:44:03;;;;;;;0.93;0.60;;;10.60;99.40;;;;;;5013984;28;20495;-45
2023/12/20 02:46:29;;;;;;;0.63;0.47;;;10.60;99.40;;;;;;5013694;28;20076;-44
2023/12/20 02:48:54;;;;;;;0.70;0.60;;;10.60;99.40;;;;;;5013791;28;20113;-44
2023/12/20 02:51:20;;;;;;;0.93;0.60;;;10.60;99.50;;;;;;5013713;28;20026;-44
2023/12/20 02:53:46;;;;;;;0.35;0.30;;;10.60;99.50;;;;;;5013832;28;20494;-44
2023/12/20 02:56:11;;;;;;;0.70;0.40;;;10.60;99.60;;;;;;5013499;28;20527;-44
2023/12/20 02:58:37;;;;;;;0.63;0.52;;;10.70;99.60;;;;;;5013549;28;20025;-44
2023/12/20 03:01:03;;;;;;;0.57;0.50;;;10.70;99.60;;;;;;5013385;28;20408;-45
2023/12/20 03:03:28;;;;;;;0.60;0.50;;;10.70;99.60;;;;;;5013463;28;20022;-43
2023/12/20 03:05:54;;;;;;;0.77;0.50;;;10.80;99.60;;;;;;5013445;28;20053;-45
2023/12/20 03:08:19;;;;;;;1.52;0.60;;;10.80;99.50;;;;;;5013325;28;20494;-44
2023/12/20 03:10:45;;;;;;;0.50;0.30;;;10.80;99.50;;;;;;5013981;28;20028;-45
2023/12/20 03:13:11;;;;;;;0.57;0.40;;;10.80;99.40;;;;;;5013414;28;20037;-44
2023/12/20 03:15:37;;;;;;;0.60;0.50;;;10.90;99.40;;;;;;5013164;28;20034;-44
2023/12/20 03:18:03;;;;;;;0.60;0.47;;;10.90;99.40;;;;;;5012533;28;20057;-43
2023/12/20 03:20:30;;;;;;;0.57;0.40;;;10.90;99.30;;;;;;5013214;28;20060;-44
2023/12/20 03:22:56;;;;;;;0.35;0.35;;;10.90;99.20;;;;;;5013227;28;20041;-44
2023/12/20 03:25:22;;;;;;;0.60;0.50;;;10.90;99.20;;;;;;5013042;28;20034;-43
2023/12/20 03:27:47;;;;;;;0.60;0.47;;;11.00;99.20;;;;;;5012999;28;20084;-44
2023/12/20 03:30:13;;;;;;;0.50;0.40;;;11.00;99.20;;;;;;5012820;28;20026;-43
2023/12/20 03:32:39;;;;;;;0.77;0.35;;;11.00;99.20;;;;;;5013279;28;20013;-44
2023/12/20 03:35:05;;;;;;;0.60;0.40;;;11.00;99.10;;;;;;5012940;28;20495;-44
2023/12/20 03:37:31;;;;;;;0.35;0.30;;;11.00;99.10;;;;;;5013164;28;20080;-43
2023/12/20 03:39:56;;;;;;;0.50;0.40;;;11.00;99.10;;;;;;5012142;28;20538;-44
2023/12/20 03:42:22;;;;;;;0.50;0.40;;;11.00;99.10;;;;;;5013263;28;20041;-44
2023/12/20 03:44:48;;;;;;;0.40;0.40;;;11.00;99.10;;;;;;5013687;28;20415;-44
2023/12/20 03:47:14;;;;;;;0.52;0.50;;;11.00;99.10;;;;;;5012711;28;20022;-43
2023/12/20 03:49:39;;;;;;;0.55;0.30;;;11.00;99.00;;;;;;5013313;28;20104;-44
2023/12/20 03:52:05;;;;;;;0.40;0.30;;;11.00;99.00;;;;;;5012693;28;20472;-44
2023/12/20 03:54:31;;;;;;;0.60;0.40;;;11.00;99.10;;;;;;5012503;28;20464;-43
2023/12/20 03:56:56;;;;;;;0.20;0.20;;;11.00;99.00;;;;;;5012782;28;20033;-43
2023/12/20 03:59:22;;;;;;;0.60;0.40;;;11.00;99.10;;;;;;5012864;28;20531;-44
2023/12/20 04:01:47;;;;;;;0.30;0.30;;;11.00;99.10;;;;;;5012422;28;20022;-43
2023/12/20 04:04:14;;;;;;;0.40;0.35;;;11.00;99.10;;;;;;5012644;28;20026;-44
2023/12/20 04:06:40;;;;;;;0.80;0.40;;;11.00;99.00;;;;;;5012555;28;20153;-43
2023/12/20 04:09:05;;;;;;;0.60;0.38;;;11.00;99.10;;;;;;5012186;28;20026;-43
2023/12/20 04:11:31;;;;;;;0.30;0.30;;;11.00;99.10;;;;;;5012652;28;20032;-43
2023/12/20 04:13:56;;;;;;;0.50;0.35;;;11.00;99.10;;;;;;5012376;28;20022;-43
2023/12/20 04:16:22;;;;;;;0.70;0.55;;;11.00;99.10;;;;;;5012180;28;20451;-43
2023/12/20 04:18:48;;;;;;;0.50;0.30;;;11.00;99.10;;;;;;5012169;28;20033;-43
2023/12/20 04:21:13;;;;;;;0.20;0.20;;;11.00;99.10;;;;;;5012083;28;20025;-44
2023/12/20 04:23:39;;;;;;;0.40;0.28;;;11.00;99.10;;;;;;5012030;28;20038;-44
2023/12/20 04:26:05;;;;;;;0.40;0.38;;;11.00;99.20;;;;;;5012015;28;20045;-43
2023/12/20 04:28:30;;;;;;;0.38;0.20;;;11.00;99.10;;;;;;5011885;28;20026;-43
2023/12/20 04:30:56;;;;;;;0.43;0.35;;;10.90;99.10;;;;;;5012074;28;20030;-43
2023/12/20 04:33:22;;;;;;;0.35;0.30;;;10.90;99.10;;;;;;5011958;28;20026;-43
2023/12/20 04:35:48;;;;;;;0.60;0.40;;;11.00;99.20;;;;;;5012008;28;20037;-42
2023/12/20 04:38:14;;;;;;;0.40;0.30;;;10.90;99.10;;;;;;5011672;28;20392;-44
2023/12/20 04:40:40;;;;;;;0.45;0.30;;;10.90;99.20;;;;;;5011742;28;20114;-43
2023/12/20 04:43:07;;;;;;;0.30;0.30;;;10.90;99.20;;;;;;5011830;28;20022;-44
2023/12/20 04:45:32;;;;;;;0.45;0.30;;;11.00;99.20;;;;;;5011763;28;20018;-44
2023/12/20 04:47:58;;;;;;;0.32;0.32;;;10.90;99.20;;;;;;5011626;28;20025;-44
2023/12/20 04:50:24;;;;;;;0.30;0.30;;;10.90;99.20;;;;;;5011583;28;20021;-43
2023/12/20 04:52:49;;;;;;;0.30;0.20;;;10.90;99.30;;;;;;5012553;28;20032;-44
2023/12/20 04:55:15;;;;;;;0.85;0.40;;;10.90;99.30;;;;;;5012206;28;20105;-43
2023/12/20 04:57:41;;;;;;;0.40;0.20;;;10.90;99.30;;;;;;5012130;28;20036;-44
2023/12/20 05:00:08;;;;;;;0.43;0.30;;;10.90;99.30;;;;;;5012437;28;20025;-44
2023/12/20 05:02:35;;;;;;;1.13;0.40;;;10.90;99.30;;;;;;5011610;28;20472;-42
2023/12/20 05:05:00;;;;;;;0.63;0.30;;;10.90;99.30;;;;;;5011690;28;20048;-44
2023/12/20 05:07:26;;;;;;;0.75;0.40;;;10.90;99.30;;;;;;5011661;28;20026;-44
2023/12/20 05:09:51;;;;;;;0.30;0.25;;;10.90;99.40;;;;;;5011728;28;20014;-43
2023/12/20 05:12:17;;;;;;;0.60;0.30;;;10.90;99.30;;;;;;5012357;28;20049;-43
2023/12/20 05:14:43;;;;;;;0.30;0.20;;;10.90;99.30;;;;;;5011676;28;20034;-42
2023/12/20 05:17:08;;;;;;;0.60;0.20;;;10.80;99.30;;;;;;5011348;28;20034;-43
2023/12/20 05:19:35;;;;;;;0.45;0.30;;;10.80;99.40;;;;;;5011877;28;20467;-44
2023/12/20 05:22:01;;;;;;;0.60;0.40;;;10.80;99.40;;;;;;5011162;28;20054;-43
2023/12/20 05:24:27;;;;;;;0.20;0.20;;;10.80;99.40;;;;;;5011451;28;20018;-44
2023/12/20 05:26:53;;;;;;;0.35;0.30;;;10.90;99.40;;;;;;5011441;28;20030;-43
2023/12/20 05:29:19;;;;;;;0.50;0.30;;;10.80;99.40;;;;;;5011305;28;20395;-43
2023/12/20 05:31:44;;;;;;;0.32;0.30;;;10.80;99.40;;;;;;5011195;28;20395;-43
2023/12/20 05:34:10;;;;;;;0.25;0.20;;;10.90;99.50;;;;;;5011338;28;20384;-44
2023/12/20 05:36:36;;;;;;;0.52;0.30;;;10.80;99.40;;;;;;5011412;28;20030;-41
2023/12/20 05:39:04;;;;;;;0.22;0.22;;;10.80;99.50;;;;;;5011289;28;20128;-43
2023/12/20 05:41:30;;;;;;;0.17;0.15;;;10.80;99.50;;;;;;5011836;28;20030;-43
2023/12/20 05:43:57;;;;;;;0.30;0.30;;;10.80;99.80;;;;;;5014994;28;20033;-44
2023/12/20 05:46:24;;;;;;;0.32;0.20;;;10.80;99.50;;;;;;5014777;28;20022;-44
2023/12/20 05:48:49;;;;;;;0.30;0.30;;;10.80;99.50;;;;;;5014817;28;20468;-44
2023/12/20 05:51:15;;;;;;;0.32;0.20;;;10.80;99.60;;;;;;5014765;28;20040;-41
2023/12/20 05:53:41;;;;;;;0.73;0.35;;;10.80;99.60;;;;;;5015092;28;20018;-41
2023/12/20 05:56:06;;;;;;;1.67;0.30;;;10.80;99.60;;;;;;5015158;28;20026;-44
2023/12/20 05:58:35;;;;;;;0.63;0.30;;;10.80;99.60;;;;;;5015149;28;20057;-42
2023/12/20 06:01:01;;;;;;;0.63;0.40;;;10.80;99.60;;;;;;5014897;28;20084;-43
2023/12/20 06:03:26;;;;;;;2.05;0.32;;;10.70;99.60;;;;;;5014665;28;20034;-43
2023/12/20 06:05:52;;;;;;;0.20;0.20;;;10.70;99.70;;;;;;5014499;28;20022;-44
2023/12/20 06:08:17;;;;;;;0.57;0.40;;;10.80;99.70;;;;;;5014588;28;20018;-43
2023/12/20 06:10:43;;;;;;;0.30;0.20;;;10.80;99.70;;;;;;5014816;28;20411;-43
2023/12/20 06:13:09;;;;;;;0.88;0.20;;;10.70;99.70;;;;;;5014458;28;20026;-44
2023/12/20 06:15:35;;;;;;;0.30;0.25;;;10.70;99.70;;;;;;5014316;28;20535;-42
2023/12/20 06:18:00;;;;;;;0.22;0.20;;;10.70;99.70;;;;;;5014350;28;20025;-44
2023/12/20 06:20:26;;;;;;;0.40;0.20;;;10.80;99.70;;;;;;5014425;28;20404;-43
2023/12/20 06:22:52;;;;;;;0.30;0.30;;;10.70;99.70;;;;;;5014331;28;20041;-43
2023/12/20 06:25:17;;;;;;;0.30;0.28;;;10.70;99.70;;;;;;5014315;28;20026;-44
2023/12/20 06:27:43;;;;;;;0.28;0.20;;;10.70;99.70;;;;;;5014185;28;20050;-43
2023/12/20 06:30:09;;;;;;;0.40;0.38;;;10.70;99.70;;;;;;5014134;28;20018;-43
2023/12/20 06:32:35;;;;;;;0.50;0.30;;;10.70;99.80;;;;;;5012703;28;20447;-43
2023/12/20 06:35:01;;;;;;;0.25;0.20;;;10.70;99.70;;;;;;5014082;28;20053;-44
2023/12/20 06:37:26;;;;;;;0.20;0.20;;;10.70;99.80;;;;;;5014091;28;20029;-44
2023/12/20 06:39:52;;;;;;;0.63;0.28;;;10.70;99.80;;;;;;5014280;28;20116;-43
2023/12/20 06:42:17;;;;;;;0.28;0.20;;;10.70;99.80;;;;;;5013866;28;20041;-44
2023/12/20 06:44:43;;;;;;;0.20;0.20;;;10.70;99.80;;;;;;5013841;28;20026;-43
2023/12/20 06:47:09;;;;;;;0.40;0.30;;;10.70;99.80;;;;;;5013826;28;20483;-43
2023/12/20 06:49:34;;;;;;;0.40;0.30;;;10.70;99.80;;;;;;5013962;28;20033;-44
2023/12/20 06:52:00;;;;;;;0.20;0.10;;;10.70;99.80;;;;;;5013202;28;20026;-43
2023/12/20 06:54:25;;;;;;;0.35;0.30;;;10.70;99.80;;;;;;5013006;28;20034;-43
2023/12/20 06:56:51;;;;;;;0.13;0.13;;;10.70;99.80;;;;;;5013739;28;20022;-43
2023/12/20 06:59:17;;;;;;;0.30;0.30;;;10.70;99.80;;;;;;5013520;28;20049;-43
2023/12/20 07:01:42;;;;;;;0.38;0.25;;;10.70;99.90;;;;;;5013561;28;20030;-44
2023/12/20 07:04:08;;;;;;;1.25;0.30;;;10.70;99.90;;;;;;5013556;28;20472;-42
2023/12/20 07:06:34;;;;;;;0.82;0.20;;;10.70;99.90;;;;;;5013523;28;20480;-44
2023/12/20 07:08:59;;;;;;;0.30;0.20;;;10.70;99.90;;;;;;5014243;28;20030;-44
2023/12/20 07:11:26;;;;;;;0.30;0.20;;;10.70;99.90;;;;;;5013342;28;20032;-44
2023/12/20 07:13:51;;;;;;;0.60;0.25;;;10.70;99.90;;;;;;5013630;28;20105;-43
2023/12/20 07:16:17;;;;;;;0.73;0.20;;;10.70;99.90;;;;;;5013464;28;20097;-43
2023/12/20 07:18:43;;;;;;;0.35;0.30;;;10.70;99.90;;;;;;5013116;28;20089;-43
2023/12/20 07:21:08;;;;;;;0.30;0.30;;;10.60;99.90;;;;;;5013124;28;20059;-43
2023/12/20 07:23:34;;;;;;;0.30;0.20;;;10.60;99.90;;;;;;5013099;28;20030;-44
2023/12/20 07:25:59;;;;;;;0.20;0.20;;;10.70;99.90;;;;;;5013128;28;20037;-42
2023/12/20 07:28:25;;;;;;;0.30;0.20;;;10.70;99.90;;;;;;5012967;28;20512;-43
2023/12/20 07:30:51;;;;;;;0.50;0.30;;;10.60;99.90;;;;;;5013075;28;20105;-43
2023/12/20 07:33:16;;;;;;;1.08;0.25;;;10.70;99.90;;;;;;5013039;28;20388;-44
2023/12/20 07:35:42;;;;;;;0.30;0.20;;;10.60;99.90;;;;;;5012929;28;20033;-42
2023/12/20 07:38:07;;;;;;;0.40;0.30;;;10.70;99.90;;;;;;5012834;28;20026;-43
2023/12/20 07:40:33;;;;;;;0.28;0.25;;;10.60;99.90;;;;;;5012719;28;20018;-43
2023/12/20 07:42:59;;;;;;;0.32;0.30;;;10.60;99.90;;;;;;5012596;28;20021;-44
2023/12/20 07:45:25;;;;;;;0.32;0.30;;;10.70;99.90;;;;;;5013003;28;20021;-44
2023/12/20 07:47:51;;;;;;;0.20;0.20;;;10.60;99.90;;;;;;5012572;28;20087;-43
2023/12/20 07:50:16;;;;;;;1.83;0.25;;;10.70;99.90;;;;;;5012561;28;20034;-42
2023/12/20 07:52:42;;;;;;;0.40;0.40;;;10.60;99.90;;;;;;5012634;28;20030;-43
2023/12/20 07:55:08;;;;;;;0.35;0.30;;;10.70;99.90;;;;;;5012615;28;20543;-43
2023/12/20 07:57:33;;;;;;;0.63;0.40;;;10.70;99.90;;;;;;5012376;28;20030;-43
2023/12/20 07:59:59;;;;;;;0.20;0.20;;;10.70;99.90;;;;;;5013594;28;20526;-43
2023/12/20 08:02:24;;;;;;;0.30;0.30;;;10.70;99.90;;;;;;5012557;28;20115;-44
2023/12/20 08:04:50;;;;;;;0.43;0.30;;;10.70;99.90;;;;;;5012780;28;20388;-42
2023/12/20 08:07:16;;;;;;;0.45;0.40;;;10.80;99.90;;;;;;5012736;28;20457;-43
2023/12/20 08:09:43;;;;;;;0.40;0.30;;;10.80;99.90;;;;;;5012346;28;20041;-43
2023/12/20 08:12:09;;;;;;;0.50;0.40;;;10.80;99.90;;;;;;5012165;28;20033;-44
2023/12/20 08:14:35;;;;;;;0.60;0.40;;;10.90;99.90;;;;;;5012306;28;20030;-44
2023/12/20 08:17:00;;;;;;;0.63;0.47;;;10.80;99.90;;;;;;5012197;28;20032;-44
2023/12/20 08:19:26;;;;;;;0.60;0.40;;;10.90;99.90;;;;;;5012333;28;20026;-43
2023/12/20 08:21:51;;;;;;;0.80;0.45;;;10.90;99.90;;;;;;5011926;28;20099;-44
2023/12/20 08:24:17;;;;;;;0.43;0.40;;;11.00;99.90;;;;;;5012105;28;20072;-43
2023/12/20 08:26:43;;;;;;;0.50;0.30;;;11.00;99.80;;;;;;5011902;28;20022;-41
2023/12/20 08:29:08;;;;;;;0.40;0.40;;;11.00;99.80;;;;;;5011985;28;20117;-43
2023/12/20 08:31:34;;;;;;;0.80;0.40;;;11.10;99.80;;;;;;5012230;28;20022;-43
2023/12/20 08:33:59;;;;;;;0.60;0.50;;;11.10;99.70;;;;;;5012064;28;20444;-44
2023/12/20 08:36:25;;;;;;;0.50;0.43;;;11.10;99.70;;;;;;5012633;28;20106;-44
2023/12/20 08:38:51;;;;;;;1.05;0.60;;;11.10;99.90;;;;;;5012338;28;20389;-44
2023/12/20 08:41:17;;;;;;;0.38;0.35;;;11.20;99.70;;;;;;5012226;28;20041;-43
2023/12/20 08:43:43;;;;;;;0.95;0.63;;;11.20;99.60;;;;;;5011910;28;20026;-43
2023/12/20 08:46:12;;;;;;;0.47;0.40;;;11.30;99.60;;;;;;5011996;28;20029;-43
2023/12/20 08:48:37;;;;;;;0.60;0.40;;;11.40;99.60;;;;;;5011621;28;20029;-43
2023/12/20 08:51:04;;;;;;;0.50;0.40;;;11.40;99.50;;;;;;5011424;28;20388;-43
2023/12/20 08:53:29;;;;;;;0.20;0.20;;;11.50;99.40;;;;;;5011724;28;20030;-44
2023/12/20 08:55:55;;;;;;;0.30;0.30;;;11.50;99.30;;;;;;5011644;28;20391;-43
2023/12/20 08:58:21;;;;;;;0.40;0.40;;;11.60;99.30;;;;;;5011491;28;20029;-44
2023/12/20 09:00:46;;;;;;;0.63;0.40;;;11.60;99.20;;;;;;5011805;28;20040;-44
2023/12/20 09:03:12;;;;;;;0.60;0.40;;;11.70;99.20;;;;;;5011585;28;20034;-44
2023/12/20 09:05:37;;;;;;;0.38;0.30;;;11.70;99.10;;;;;;5011556;28;20030;-43
2023/12/20 09:08:03;;;;;;;0.75;0.40;;;11.80;99.10;;;;;;5011483;28;20063;-44
2023/12/20 09:10:29;;;;;;;1.33;0.50;;;11.90;99.00;;;;;;5011451;28;20014;-44
2023/12/20 09:12:57;;;;;;;0.55;0.40;;;12.00;98.90;;;;;;5011425;28;20104;-43
2023/12/20 09:15:25;;;;;;;1.58;0.60;;;12.10;98.80;;;;;;5011496;28;20030;-44
2023/12/20 09:17:51;;;;;;;0.38;0.38;;;12.20;98.70;;;;;;5015125;28;20025;-44
2023/12/20 09:20:16;;;;;;;0.55;0.40;;;12.30;98.60;;;;;;5015974;28;20026;-44
2023/12/20 09:22:42;;;;;;;0.93;0.50;;;12.30;98.50;;;;;;5015294;28;20435;-42
2023/12/20 09:25:09;;;;;;;0.55;0.38;;;12.40;98.40;;;;;;5015439;28;20055;-45
2023/12/20 09:27:34;;;;;;;1.83;0.52;;;12.60;98.40;;;;;;5016061;28;20030;-44
2023/12/20 09:30:00;;;;;;;0.45;0.40;;;12.60;98.30;;;;;;5016770;28;20032;-45
2023/12/20 09:32:25;;;;;;;0.90;0.52;;;12.70;98.20;;;;;;5015298;28;20476;-45
2023/12/20 09:34:51;;;;;;;2.55;0.93;;;12.80;98.50;;;;;;5015174;28;20029;-45
2023/12/20 09:37:17;;;;;;;4.55;1.30;;;12.80;97.90;;;;;;5015109;28;20037;-45
2023/12/20 09:39:42;;;;;;;3.05;1.10;;;12.90;97.50;;;;;;5015699;28;20115;-45
2023/12/20 09:42:11;;;;;;;2.60;0.95;;;13.00;97.60;;;;;;5015568;28;20030;-44
2023/12/20 09:44:40;;;;;;;3.65;1.10;;;13.10;97.70;;;;;;5015057;28;20183;-45
2023/12/20 09:47:06;;;;;;;2.45;0.85;;;13.30;97.70;;;;;;5015037;28;20018;-44
2023/12/20 09:49:33;;;;;;;2.38;0.85;;;13.50;98.00;;;;;;5014843;28;20074;-45
2023/12/20 09:52:00;;;;;;;2.40;1.00;;;13.60;97.60;;;;;;5014844;28;20048;-45
2023/12/20 09:54:28;;;;;;;2.00;1.00;;;13.70;97.60;;;;;;5014859;28;20030;-45
2023/12/20 09:56:54;;;;;;;1.98;0.70;;;13.80;97.50;;;;;;5014737;28;20041;-44
2023/12/20 09:59:19;;;;;;;3.90;1.00;;;13.90;97.40;;;;;;5014784;28;20030;-44
2023/12/20 10:01:45;;;;;;;1.95;1.00;;;14.10;97.70;;;;;;5014758;28;20033;-43
2023/12/20 10:04:13;;;;;;;2.28;0.82;;;14.20;97.70;;;;;;5014701;28;20480;-44
2023/12/20 10:06:42;;;;;;;3.05;0.95;;;14.20;97.30;;;;;;5014684;28;20026;-45
2023/12/20 10:09:12;;;;;;;1.60;0.70;;;14.30;97.30;;;;;;5014767;28;20476;-45
2023/12/20 10:11:38;;;;;;;2.25;0.60;;;14.30;97.20;;;;;;5014687;28;20030;-44
2023/12/20 10:14:05;;;;;;;4.05;1.00;;;14.40;97.10;;;;;;5014415;28;20024;-44
2023/12/20 10:16:32;;;;;;;1.70;0.77;;;14.50;97.10;;;;;;5015448;28;20350;-43
2023/12/20 10:18:58;;;;;;;3.78;0.68;;;14.50;97.00;;;;;;5014297;28;20026;-44
2023/12/20 10:21:28;;;;;;;2.67;0.93;;;14.60;97.00;;;;;;5014332;28;20076;-44
2023/12/20 10:23:55;;;;;;;3.00;1.00;;;14.60;97.00;;;;;;5014102;28;20068;-44
2023/12/20 10:26:21;;;;;;;1.35;0.75;;;14.70;96.90;;;;;;5014274;28;20492;-44
2023/12/20 10:28:54;;;;;;;1.25;0.50;;;14.70;96.90;;;;;;5013893;28;20049;-44
2023/12/20 10:31:46;;;;;;;2.55;0.90;;;14.70;96.90;;;;;;5014149;28;20105;-43
2023/12/20 10:34:12;;;;;;;5.10;1.08;;;14.70;96.90;;;;;;5013488;28;20502;-44
2023/12/20 10:36:37;;;;;;;3.72;0.98;;;14.70;96.40;;;;;;5014011;28;20026;-44
2023/12/20 10:39:05;;;;;;;3.35;0.73;;;14.70;95.90;;;;;;5013994;28;20053;-44
2023/12/20 10:41:32;;;;;;;2.47;0.77;;;14.70;95.70;;;;;;5013966;28;20380;-44
2023/12/20 10:44:01;;;;;;;3.75;1.10;;;14.70;95.50;;;;;;5014376;28;20045;-43
2023/12/20 10:46:28;;;;;;;2.70;0.90;;;14.70;95.40;;;;;;5014248;28;20026;-44
2023/12/20 10:48:55;;;;;;;6.10;0.90;;;14.70;95.40;;;;;;5013577;28;20030;-44
2023/12/20 10:51:22;;;;;;;2.60;0.90;;;14.70;95.30;;;;;;5013633;28;20033;-45
2023/12/20 10:53:49;;;;;;;3.28;0.77;;;14.80;95.30;;;;;;5014050;28;20026;-44
2023/12/20 10:56:19;;;;;;;4.07;0.90;;;14.80;95.30;;;;;;5013769;28;20041;-44
2023/12/20 10:58:49;;;;;;;2.85;0.90;;;14.80;95.20;;;;;;5013603;28;20045;-44
2023/12/20 11:01:18;;;;;;;5.95;1.15;;;14.80;95.20;;;;;;5013791;28;20080;-44
2023/12/20 11:03:49;;;;;;;3.03;1.00;;;14.80;95.20;;;;;;5013568;28;20494;-44
2023/12/20 11:06:30;;;;;;;2.25;0.93;;;14.80;95.10;;;;;;5013680;28;20030;-44
2023/12/20 11:09:09;;;;;;;3.65;1.20;;;14.80;95.10;;;;;;5013752;28;20068;-43
2023/12/20 11:11:41;;;;;;;2.72;1.00;;;14.90;95.10;;;;;;5013529;28;20029;-44
2023/12/20 11:14:12;;;;;;;2.97;0.90;;;14.90;95.10;;;;;;5013411;28;20021;-42
2023/12/20 11:16:38;;;;;;;4.97;0.95;;;14.90;95.00;;;;;;5013431;28;20141;-45
2023/12/20 11:19:07;;;;;;;4.57;1.00;;;14.90;95.00;;;;;;5013499;28;20101;-44
2023/12/20 11:21:33;;;;;;;2.22;0.70;;;14.90;95.00;;;;;;5013091;28;20037;-45
2023/12/20 11:24:03;;;;;;;1.98;0.80;;;14.90;95.00;;;;;;5013329;28;20034;-45
2023/12/20 11:26:29;;;;;;;2.35;0.80;;;14.90;94.90;;;;;;5013541;28;20033;-43
2023/12/20 11:29:31;;;;;;;1.90;0.75;;;14.90;94.90;;;;;;5013087;28;20041;-45
2023/12/20 11:31:59;;;;;;;2.92;0.82;;;15.00;94.80;;;;;;5012908;28;20033;-43
2023/12/20 11:34:28;;;;;;;1.88;0.75;;;15.00;94.80;;;;;;5012883;28;20048;-44
2023/12/20 11:36:59;;;;;;;3.75;0.85;;;15.00;94.70;;;;;;5013174;28;20033;-44
2023/12/20 11:39:26;;;;;;;4.38;0.80;;;15.00;94.70;;;;;;5012218;28;20032;-44
2023/12/20 11:41:53;;;;;;;2.13;0.70;;;15.00;94.60;;;;;;5013460;28;20068;-44
2023/12/20 11:44:20;;;;;;;2.30;0.65;;;15.00;94.60;;;;;;5012963;28;20129;-44
2023/12/20 11:46:46;;;;;;;1.42;0.68;;;15.00;94.60;;;;;;5012724;28;20025;-44
2023/12/20 11:49:11;;;;;;;1.65;0.73;;;15.00;94.60;;;;;;5012671;28;20022;-45
2023/12/20 11:51:42;;;;;;;1.80;0.75;;;15.00;94.60;;;;;;5012546;28;20480;-43
2023/12/20 11:54:08;;;;;;;1.40;0.60;;;15.00;94.50;;;;;;5012736;28;20285;-43
2023/12/20 11:56:35;;;;;;;2.95;0.82;;;15.00;94.50;;;;;;5012447;28;20030;-44
2023/12/20 11:59:01;;;;;;;3.58;1.02;;;15.00;94.50;;;;;;5012386;28;20030;-43
2023/12/20 12:01:27;;;;;;;4.35;0.90;;;15.00;94.50;;;;;;5011241;28;20049;-43
2023/12/20 12:04:08;;;;;;;1.63;0.65;;;15.00;94.50;;;;;;5012529;28;20503;-43
2023/12/20 12:06:34;;;;;;;1.35;0.55;;;15.00;94.50;;;;;;5012319;28;20026;-44
2023/12/20 12:08:59;;;;;;;1.60;0.68;;;15.00;94.50;;;;;;5012343;28;20530;-44
2023/12/20 12:11:25;;;;;;;3.10;0.98;;;15.00;94.40;;;;;;5012466;28;20427;-45
2023/12/20 12:13:51;;;;;;;1.95;0.70;;;15.00;94.40;;;;;;5012591;28;20033;-44
2023/12/20 12:16:18;;;;;;;2.22;0.80;;;15.00;94.40;;;;;;5012784;28;20073;-44
2023/12/20 12:18:45;;;;;;;3.15;0.80;;;15.00;94.40;;;;;;5012406;28;20033;-44
2023/12/20 12:21:18;;;;;;;2.30;0.80;;;15.00;94.40;;;;;;5012664;28;20018;-44
2023/12/20 12:23:44;;;;;;;1.70;0.73;;;15.00;94.40;;;;;;5012377;28;20029;-44
2023/12/20 12:26:09;;;;;;;2.38;0.75;;;15.00;94.40;;;;;;5012300;28;20365;-44
2023/12/20 12:28:35;;;;;;;2.00;0.82;;;15.00;94.40;;;;;;5011922;28;20026;-44
2023/12/20 12:31:01;;;;;;;3.50;0.80;;;15.00;94.40;;;;;;5011973;28;20026;-44
2023/12/20 12:33:27;;;;;;;1.95;0.85;;;15.00;94.40;;;;;;5012162;28;20325;-44
2023/12/20 12:35:53;;;;;;;2.50;0.82;;;15.00;94.40;;;;;;5011919;28;20030;-44
2023/12/20 12:38:22;;;;;;;1.63;0.60;;;15.00;94.40;;;;;;5011986;28;20373;-45
2023/12/20 12:40:48;;;;;;;2.70;1.08;;;15.00;94.40;;;;;;5012129;28;20081;-43
2023/12/20 12:43:14;;;;;;;2.88;0.80;;;15.00;94.40;;;;;;5012188;28;20030;-44